LTCT

Iğdır

Iğdır, Turkey
TAF LTCT 261040Z 2612/2621 07009KT 9999 FEW040
Issued Valid From Valid To
Apr-26 @ 10:40 UTC
(3 hours ago)
Apr-26 @ 12:00 UTC
(an hour ago)
Apr-26 @ 21:00 UTC
(in 8 hours)
Apr-26 @ 12:00 to Apr-26 @ 21:00
TAF LTCT 261040Z 2612/2621 07009KT 9999 FEW040
Wind Visibility Clouds
70° at 9 knots 10,000+ meters
  • Few at 4,000' AGL
TAF LTCT 261040Z 2612/2621 07009KT 9999 FEW040
Issued Apr-26 @ 10:40 UTC
(3 hours ago)
Valid From Apr-26 @ 12:00 UTC
(an hour ago)
Valid To Apr-26 @ 21:00 UTC
(in 8 hours)
Apr-26 @ 12:00 - Apr-26 @ 21:00
Wind Visibility
70° at 9 knots 10,000+ meters
Clouds
  • Few at 4,000' AGL